Time;durP1;ratioP1;P1;durP2;ratioP2;P2;SDS_P1;SDS_P2;PMS_P1;PMS_P2;Temp;Humidity;BMP_temperature;BMP_pressure;BME280_temperature;BME280_humidity;BME280_pressure;Samples;Min_cycle;Max_cycle;Signal;HPM_P1;HPM_P2
2022/09/30 00:01:35;;;;;;;9.05;3.38;;;21.00;99.90;;;;;;5030437;28;20056;-71
2022/09/30 00:04:03;;;;;;;12.90;3.47;;;21.00;99.90;;;;;;5046780;28;20040;-71
2022/09/30 00:06:34;;;;;;;6.13;2.78;;;21.00;99.90;;;;;;5015011;28;20506;-72
2022/09/30 00:09:02;;;;;;;9.77;3.80;;;21.00;99.90;;;;;;5046517;28;20033;-71
2022/09/30 00:11:33;;;;;;;7.00;2.38;;;21.00;99.90;;;;;;5047277;28;20438;-71
2022/09/30 00:14:01;;;;;;;6.93;3.72;;;21.00;99.90;;;;;;5032837;28;20480;-70
2022/09/30 00:16:33;;;;;;;10.93;4.15;;;21.00;99.90;;;;;;5045179;28;20071;-70
2022/09/30 00:19:04;;;;;;;6.50;3.65;;;21.00;99.90;;;;;;5054164;28;20082;-71
2022/09/30 00:21:35;;;;;;;5.63;2.78;;;21.00;99.90;;;;;;5054078;28;20820;-70
2022/09/30 00:24:03;;;;;;;13.65;3.38;;;20.90;99.90;;;;;;5052839;28;20044;-71
2022/09/30 00:26:33;;;;;;;6.53;2.97;;;20.90;99.90;;;;;;5037245;28;20080;-70
2022/09/30 00:29:01;;;;;;;20.13;5.20;;;20.90;99.90;;;;;;5036839;28;20332;-70
2022/09/30 00:31:32;;;;;;;10.32;3.13;;;20.90;99.90;;;;;;5053646;28;20096;-70
2022/09/30 00:34:06;;;;;;;7.00;3.40;;;20.80;99.90;;;;;;5053318;28;20506;-70
2022/09/30 00:36:50;;;;;;;13.85;4.22;;;20.80;99.90;;;;;;5053700;28;20123;-71
2022/09/30 00:39:21;;;;;;;7.13;2.72;;;20.80;99.90;;;;;;5053483;28;20056;-70
2022/09/30 00:41:52;;;;;;;8.40;4.18;;;20.80;99.90;;;;;;5053891;28;20064;-70
2022/09/30 00:44:51;;;;;;;6.40;3.50;;;20.80;99.90;;;;;;5020477;28;20686;-70
2022/09/30 00:47:31;;;;;;;7.32;3.08;;;20.80;99.90;;;;;;5053521;28;20036;-71
2022/09/30 00:50:19;;;;;;;6.65;3.63;;;20.80;99.90;;;;;;5053381;28;20044;-70
2022/09/30 00:53:03;;;;;;;7.60;3.67;;;20.90;99.90;;;;;;5071363;28;20048;-70
2022/09/30 00:55:53;;;;;;;9.27;3.63;;;20.90;99.90;;;;;;5020090;28;20050;-71
2022/09/30 00:58:38;;;;;;;8.32;3.67;;;20.90;99.90;;;;;;5036493;28;20094;-71
2022/09/30 01:01:08;;;;;;;6.82;3.45;;;20.80;99.90;;;;;;5036237;28;20032;-70
2022/09/30 01:03:44;;;;;;;8.43;3.10;;;20.80;99.90;;;;;;5052714;28;20057;-70
2022/09/30 01:06:12;;;;;;;8.38;3.20;;;20.80;99.90;;;;;;5036026;28;20059;-72
2022/09/30 01:08:40;;;;;;;6.13;3.03;;;20.80;99.90;;;;;;5019437;28;20048;-71
2022/09/30 01:11:07;;;;;;;10.30;3.95;;;20.80;99.90;;;;;;5035761;28;20090;-70
2022/09/30 01:13:38;;;;;;;5.35;3.72;;;20.80;99.90;;;;;;5034344;28;20060;-72
2022/09/30 01:16:18;;;;;;;8.75;3.20;;;20.80;99.90;;;;;;5051367;28;20075;-72
2022/09/30 01:19:01;;;;;;;6.55;3.67;;;20.80;99.90;;;;;;5070638;28;20045;-70
2022/09/30 01:21:56;;;;;;;6.32;3.03;;;20.80;99.90;;;;;;5019730;28;20048;-70
2022/09/30 01:24:45;;;;;;;7.72;3.25;;;20.80;99.90;;;;;;5070154;28;20071;-70
2022/09/30 01:27:47;;;;;;;8.50;3.15;;;20.80;99.90;;;;;;5052161;28;20654;-70
2022/09/30 01:30:15;;;;;;;10.38;3.42;;;20.80;99.90;;;;;;5069974;28;20096;-71
2022/09/30 01:33:02;;;;;;;7.40;3.83;;;20.80;99.90;;;;;;5052337;28;20040;-70
2022/09/30 01:35:53;;;;;;;10.25;2.97;;;20.80;99.90;;;;;;5052615;28;20051;-70
2022/09/30 01:38:26;;;;;;;13.43;3.80;;;20.90;99.90;;;;;;5050200;28;20051;-70
2022/09/30 01:41:28;;;;;;;11.63;3.42;;;20.80;99.90;;;;;;5019562;28;20461;-70
2022/09/30 01:44:37;;;;;;;6.75;3.53;;;20.90;99.90;;;;;;5056557;28;20179;-71
2022/09/30 01:47:22;;;;;;;8.93;3.45;;;20.90;99.90;;;;;;4955463;28;20053;-71
2022/09/30 01:49:59;;;;;;;11.63;4.53;;;20.90;99.90;;;;;;4971725;28;20525;-71
2022/09/30 01:52:41;;;;;;;10.15;4.47;;;21.00;99.90;;;;;;5000847;28;20044;-74
2022/09/30 01:55:21;;;;;;;12.15;5.00;;;20.90;99.90;;;;;;5035397;28;20052;-70
2022/09/30 01:58:11;;;;;;;17.83;5.40;;;20.90;99.90;;;;;;5034418;28;20048;-70
2022/09/30 02:00:43;;;;;;;9.82;3.40;;;20.90;99.90;;;;;;5035416;28;20048;-72
2022/09/30 02:03:17;;;;;;;7.75;3.20;;;20.90;99.90;;;;;;5034786;28;20048;-79
2022/09/30 02:05:56;;;;;;;8.35;3.40;;;20.90;99.90;;;;;;5068967;28;20155;-70
2022/09/30 02:09:21;;;;;;;12.40;3.42;;;21.00;99.90;;;;;;5051334;28;20358;-72
2022/09/30 02:11:50;;;;;;;8.45;3.83;;;21.00;99.90;;;;;;4991398;28;20069;-70
2022/09/30 02:14:34;;;;;;;9.73;4.65;;;21.00;99.90;;;;;;4990587;28;20679;-73
2022/09/30 02:17:26;;;;;;;11.98;4.80;;;21.00;99.90;;;;;;5036760;28;20064;-71
2022/09/30 02:20:14;;;;;;;10.45;3.20;;;21.00;99.90;;;;;;5030919;28;20140;-70
2022/09/30 02:22:57;;;;;;;7.97;3.03;;;20.90;99.90;;;;;;5019990;28;20504;-70
2022/09/30 02:25:49;;;;;;;10.63;4.43;;;20.90;99.90;;;;;;5019749;28;20041;-70
2022/09/30 02:28:25;;;;;;;8.23;3.95;;;20.90;99.90;;;;;;5036489;28;20085;-70
2022/09/30 02:30:55;;;;;;;;;;;20.90;99.90;;;;;;5036726;28;20087;-73
2022/09/30 02:33:35;;;;;;;11.60;3.70;;;21.00;99.90;;;;;;5019593;28;20562;-70
2022/09/30 02:36:16;;;;;;;8.15;3.38;;;20.90;99.90;;;;;;5035705;28;20041;-71
2022/09/30 02:38:49;;;;;;;8.23;4.55;;;20.90;99.90;;;;;;5035610;28;20526;-83
2022/09/30 02:41:22;;;;;;;10.13;4.20;;;20.90;99.90;;;;;;5036221;28;20071;-70
2022/09/30 02:43:51;;;;;;;8.50;3.83;;;20.90;99.90;;;;;;5019805;28;20048;-72
2022/09/30 02:46:38;;;;;;;8.93;4.38;;;20.90;99.90;;;;;;5019724;28;20102;-71
2022/09/30 02:49:27;;;;;;;9.90;4.90;;;20.90;99.90;;;;;;5002776;28;20046;-70
2022/09/30 02:51:54;;;;;;;8.20;4.35;;;20.90;99.90;;;;;;5035473;28;20045;-71
2022/09/30 02:54:31;;;;;;;10.02;4.32;;;20.80;99.90;;;;;;5035254;28;20053;-70
2022/09/30 02:57:22;;;;;;;11.55;5.05;;;20.80;99.90;;;;;;5017954;28;20057;-73
2022/09/30 02:59:51;;;;;;;6.78;3.70;;;20.90;99.90;;;;;;5052413;28;20045;-69
2022/09/30 03:02:20;;;;;;;9.57;3.80;;;20.90;99.90;;;;;;5070298;28;20089;-70
2022/09/30 03:04:50;;;;;;;10.00;4.25;;;20.90;99.90;;;;;;5037358;28;20159;-73
2022/09/30 03:07:17;;;;;;;7.65;4.20;;;20.90;99.90;;;;;;5055084;28;20128;-70
2022/09/30 03:09:45;;;;;;;12.30;4.40;;;20.90;99.90;;;;;;5038409;28;20064;-70
2022/09/30 03:12:34;;;;;;;7.28;3.65;;;20.90;99.90;;;;;;5054204;28;20143;-71
2022/09/30 03:15:17;;;;;;;9.55;4.05;;;20.90;99.90;;;;;;5053485;28;20084;-70
2022/09/30 03:17:58;;;;;;;9.20;3.80;;;21.00;99.90;;;;;;5038595;28;20048;-70
2022/09/30 03:20:45;;;;;;;6.32;3.65;;;21.00;99.90;;;;;;5038077;28;20036;-70
2022/09/30 03:23:38;;;;;;;10.45;3.35;;;21.00;99.90;;;;;;5054010;28;20045;-70
2022/09/30 03:26:17;;;;;;;9.63;4.90;;;21.00;99.90;;;;;;5053852;28;20082;-70
2022/09/30 03:29:00;;;;;;;12.18;3.97;;;21.00;99.90;;;;;;5054008;28;20052;-70
2022/09/30 03:31:40;;;;;;;9.93;4.70;;;21.00;99.90;;;;;;5037251;28;20143;-73
2022/09/30 03:34:32;;;;;;;7.93;3.65;;;21.00;99.90;;;;;;5053742;28;20063;-70
2022/09/30 03:37:28;;;;;;;9.00;3.70;;;21.00;99.90;;;;;;5053890;28;20405;-70
2022/09/30 03:39:59;;;;;;;9.32;3.13;;;21.10;99.90;;;;;;5060095;28;20498;-70
2022/09/30 03:42:50;;;;;;;11.38;4.43;;;21.00;99.90;;;;;;5053473;28;20041;-69
2022/09/30 03:45:31;;;;;;;10.98;4.20;;;21.10;99.90;;;;;;5054298;28;20146;-70
2022/09/30 03:48:03;;;;;;;8.85;4.90;;;21.10;99.90;;;;;;5071784;28;20040;-71
2022/09/30 03:50:33;;;;;;;11.27;5.05;;;21.00;99.90;;;;;;5037497;28;20044;-70
2022/09/30 03:53:02;;;;;;;10.10;4.43;;;21.00;99.90;;;;;;5050588;28;20130;-71
2022/09/30 03:55:32;;;;;;;9.13;4.03;;;21.00;99.90;;;;;;5034146;28;20151;-72
2022/09/30 03:58:00;;;;;;;9.75;3.75;;;21.00;99.90;;;;;;5016959;28;20494;-71
2022/09/30 04:00:27;;;;;;;13.30;4.90;;;21.00;99.90;;;;;;5016671;28;20072;-70
2022/09/30 04:02:55;;;;;;;10.13;4.20;;;21.00;99.90;;;;;;5016741;28;20049;-69
2022/09/30 04:05:24;;;;;;;6.95;3.75;;;21.10;99.90;;;;;;5001020;28;20052;-70
2022/09/30 04:07:52;;;;;;;10.75;4.45;;;21.10;99.90;;;;;;5000377;28;20107;-70
2022/09/30 04:10:19;;;;;;;12.43;3.95;;;21.10;99.90;;;;;;5016884;28;20045;-70
2022/09/30 04:12:47;;;;;;;7.30;4.00;;;21.10;99.90;;;;;;5015904;28;20356;-71
2022/09/30 04:15:14;;;;;;;11.18;4.47;;;21.00;99.90;;;;;;5049942;28;20144;-70
2022/09/30 04:17:42;;;;;;;12.10;5.25;;;21.00;99.90;;;;;;5050646;28;20037;-70
2022/09/30 04:20:11;;;;;;;7.10;3.42;;;21.00;99.90;;;;;;5032978;28;20056;-71
2022/09/30 04:22:39;;;;;;;7.35;3.50;;;21.00;99.90;;;;;;5033191;28;20037;-70
2022/09/30 04:25:07;;;;;;;13.27;4.28;;;21.00;99.90;;;;;;5032796;28;20098;-70
2022/09/30 04:27:35;;;;;;;10.75;5.75;;;21.00;99.90;;;;;;5033603;28;20484;-70
2022/09/30 04:30:03;;;;;;;8.13;3.80;;;21.00;99.90;;;;;;5042883;28;20075;-70
2022/09/30 04:32:31;;;;;;;15.15;4.50;;;21.00;99.90;;;;;;5056626;28;20045;-71
2022/09/30 04:34:59;;;;;;;9.55;3.92;;;20.90;99.90;;;;;;5049613;28;20061;-73
2022/09/30 04:37:27;;;;;;;16.67;4.40;;;20.90;99.90;;;;;;5023926;28;20057;-73
2022/09/30 04:39:54;;;;;;;7.57;4.68;;;20.90;99.90;;;;;;5061497;28;20129;-73
2022/09/30 04:42:22;;;;;;;14.50;4.35;;;20.90;99.90;;;;;;5021652;28;20071;-71
2022/09/30 04:44:50;;;;;;;10.07;4.55;;;20.90;99.90;;;;;;5060625;28;20033;-70
2022/09/30 04:47:17;;;;;;;17.50;5.07;;;20.90;99.90;;;;;;5032783;28;20049;-70
2022/09/30 04:49:46;;;;;;;13.95;4.38;;;20.80;99.90;;;;;;5027802;28;20106;-70
2022/09/30 04:52:13;;;;;;;9.90;5.00;;;20.80;99.90;;;;;;5052884;28;20051;-71
2022/09/30 04:54:41;;;;;;;6.80;4.20;;;20.80;99.90;;;;;;5017643;28;20055;-70
2022/09/30 04:57:09;;;;;;;14.52;4.38;;;20.80;99.90;;;;;;5051889;28;20044;-72
2022/09/30 04:59:37;;;;;;;9.30;4.18;;;20.70;99.90;;;;;;5034357;28;20139;-70
2022/09/30 05:02:04;;;;;;;9.63;4.30;;;20.80;99.90;;;;;;5018085;28;20048;-70
2022/09/30 05:04:32;;;;;;;15.45;4.68;;;20.80;99.90;;;;;;5017333;28;20045;-70
2022/09/30 05:07:00;;;;;;;6.18;3.85;;;20.90;99.90;;;;;;5018057;28;20040;-70
2022/09/30 05:09:28;;;;;;;9.18;4.50;;;21.00;99.90;;;;;;5001848;28;20045;-70
2022/09/30 05:11:56;;;;;;;11.48;4.80;;;21.10;99.90;;;;;;5017682;28;20120;-70
2022/09/30 05:14:23;;;;;;;10.57;4.25;;;21.10;99.90;;;;;;5033635;28;20081;-72
2022/09/30 05:16:51;;;;;;;11.15;5.88;;;21.30;99.90;;;;;;5033240;28;20048;-70
2022/09/30 05:19:19;;;;;;;12.23;4.90;;;21.30;99.90;;;;;;5050975;28;20041;-71
2022/09/30 05:21:47;;;;;;;11.45;4.05;;;21.30;99.90;;;;;;5033467;28;20072;-70
2022/09/30 05:24:14;;;;;;;10.05;3.58;;;21.40;99.90;;;;;;5033847;28;20037;-70
2022/09/30 05:26:42;;;;;;;12.80;3.85;;;21.50;99.90;;;;;;5034621;28;20049;-70
2022/09/30 05:29:10;;;;;;;6.47;4.28;;;21.50;99.90;;;;;;5017848;28;20041;-76
2022/09/30 05:31:37;;;;;;;9.73;4.18;;;21.70;99.90;;;;;;5034947;28;20040;-70
2022/09/30 05:34:05;;;;;;;8.13;4.75;;;21.80;99.90;;;;;;5017331;28;20406;-71
2022/09/30 05:36:33;;;;;;;8.73;4.63;;;21.80;99.90;;;;;;5033575;28;20052;-71
2022/09/30 05:39:01;;;;;;;7.93;4.82;;;21.90;99.90;;;;;;5051394;28;20049;-70
2022/09/30 05:41:28;;;;;;;11.43;3.47;;;21.90;99.90;;;;;;5033811;28;20076;-70
2022/09/30 05:43:59;;;;;;;29.05;5.22;;;22.00;99.90;;;;;;5017186;28;20052;-70
2022/09/30 05:46:27;;;;;;;9.77;3.90;;;22.10;99.90;;;;;;5032699;28;20060;-70
2022/09/30 05:48:55;;;;;;;7.60;4.07;;;22.20;99.90;;;;;;5016730;28;20061;-72
2022/09/30 05:51:23;;;;;;;8.10;4.25;;;22.30;99.90;;;;;;5017170;28;20520;-70
2022/09/30 05:53:50;;;;;;;11.77;4.05;;;22.40;99.90;;;;;;5050712;28;20056;-70
2022/09/30 05:56:18;;;;;;;8.82;3.10;;;22.60;99.90;;;;;;5018657;28;20411;-70
2022/09/30 05:58:46;;;;;;;10.45;3.88;;;22.70;99.90;;;;;;5037312;28;20037;-72
2022/09/30 06:01:14;;;;;;;12.73;4.38;;;22.90;99.90;;;;;;5037514;28;20048;-70
2022/09/30 06:03:44;;;;;;;11.70;4.18;;;23.00;99.90;;;;;;5021445;28;20045;-70
2022/09/30 06:06:12;;;;;;;7.35;3.22;;;22.90;99.90;;;;;;5055775;28;20506;-70
2022/09/30 06:08:42;;;;;;;10.50;5.20;;;22.90;99.90;;;;;;5005204;28;20061;-71
2022/09/30 06:11:12;;;;;;;6.78;3.92;;;23.00;99.90;;;;;;5037655;28;20465;-70
2022/09/30 06:13:41;;;;;;;9.38;3.38;;;23.10;99.90;;;;;;5021553;28;20124;-70
2022/09/30 06:16:10;;;;;;;14.98;4.82;;;23.20;99.90;;;;;;5020888;28;20139;-70
2022/09/30 06:18:40;;;;;;;7.97;3.58;;;23.40;99.90;;;;;;5055291;28;20140;-78
2022/09/30 06:21:11;;;;;;;10.90;3.90;;;23.40;99.90;;;;;;5037510;28;20041;-70
2022/09/30 06:23:40;;;;;;;5.38;3.15;;;23.70;99.90;;;;;;5021015;28;20083;-71
2022/09/30 06:26:11;;;;;;;10.38;4.40;;;23.90;99.90;;;;;;5036940;28;20494;-70
2022/09/30 06:28:39;;;;;;;8.15;3.92;;;24.00;99.90;;;;;;5037197;28;20537;-70
2022/09/30 06:31:07;;;;;;;8.90;3.33;;;24.20;99.90;;;;;;5037256;28;20407;-70
2022/09/30 06:33:35;;;;;;;8.35;3.78;;;24.30;99.90;;;;;;5037535;28;20053;-70
2022/09/30 06:36:03;;;;;;;8.85;3.50;;;24.30;99.90;;;;;;5037669;28;20049;-70
2022/09/30 06:38:34;;;;;;;7.55;3.88;;;24.40;99.90;;;;;;5037908;28;20048;-70
2022/09/30 06:41:01;;;;;;;9.95;3.13;;;24.50;99.90;;;;;;5020775;28;20044;-70
2022/09/30 06:43:29;;;;;;;7.00;3.50;;;24.50;99.90;;;;;;5037078;28;20052;-70
2022/09/30 06:45:56;;;;;;;5.53;3.47;;;24.50;99.90;;;;;;5037081;28;20053;-70
2022/09/30 06:48:31;;;;;;;11.93;4.07;;;24.60;99.90;;;;;;5005850;28;20049;-70
2022/09/30 06:51:03;;;;;;;9.55;4.13;;;24.80;99.90;;;;;;5020419;28;20056;-72
2022/09/30 06:53:33;;;;;;;8.90;3.92;;;24.90;99.90;;;;;;5020383;28;20590;-70
2022/09/30 06:56:01;;;;;;;8.48;4.15;;;25.00;99.90;;;;;;5020030;28;20041;-70
2022/09/30 06:58:29;;;;;;;4.90;2.90;;;25.10;99.90;;;;;;5020666;28;20041;-72
2022/09/30 07:01:03;;;;;;;8.95;3.17;;;25.20;99.90;;;;;;5020360;28;20049;-70
2022/09/30 07:03:33;;;;;;;6.85;3.75;;;25.30;99.90;;;;;;5019949;28;20159;-71
2022/09/30 07:06:03;;;;;;;6.05;2.70;;;25.20;99.90;;;;;;5017434;28;20049;-73
2022/09/30 07:08:33;;;;;;;5.72;3.35;;;25.20;99.90;;;;;;5053890;28;20111;-70
2022/09/30 07:11:13;;;;;;;9.70;3.28;;;25.10;99.90;;;;;;5019900;28;20043;-70
2022/09/30 07:13:42;;;;;;;6.53;3.03;;;25.20;99.90;;;;;;5003937;28;20053;-70
2022/09/30 07:16:13;;;;;;;8.73;3.83;;;25.30;99.90;;;;;;5054773;28;20053;-70
2022/09/30 07:18:42;;;;;;;5.53;3.88;;;25.30;99.90;;;;;;5020306;28;20037;-70
2022/09/30 07:21:12;;;;;;;13.50;4.40;;;25.20;99.90;;;;;;5020135;28;20167;-70
2022/09/30 07:23:44;;;;;;;4.43;2.75;;;25.20;99.90;;;;;;5036699;28;20049;-70
2022/09/30 07:26:17;;;;;;;7.15;3.30;;;25.20;99.90;;;;;;5036676;28;20489;-73
2022/09/30 07:28:46;;;;;;;5.80;3.15;;;25.30;99.90;;;;;;5036967;28;20049;-73
2022/09/30 07:31:17;;;;;;;12.55;3.60;;;25.40;99.90;;;;;;5020238;28;20041;-70
2022/09/30 07:34:03;;;;;;;7.95;3.00;;;25.50;99.90;;;;;;5054174;28;20336;-70
2022/09/30 07:36:31;;;;;;;7.95;2.97;;;25.60;99.90;;;;;;5019503;28;20060;-71
2022/09/30 07:39:04;;;;;;;6.07;2.85;;;25.70;99.90;;;;;;5035976;28;20037;-70
2022/09/30 07:41:34;;;;;;;10.32;3.20;;;25.90;99.90;;;;;;5035948;28;20045;-71
2022/09/30 07:44:05;;;;;;;8.20;2.67;;;26.00;99.90;;;;;;5003103;28;20048;-73
2022/09/30 07:46:37;;;;;;;7.25;3.35;;;26.10;99.90;;;;;;5019416;28;20536;-70
2022/09/30 07:49:07;;;;;;;9.13;3.15;;;26.10;99.90;;;;;;5036119;28;20052;-70
2022/09/30 07:51:37;;;;;;;6.72;3.50;;;26.00;99.90;;;;;;5035852;28;20073;-70
2022/09/30 07:54:12;;;;;;;4.85;2.88;;;26.00;99.90;;;;;;5019502;28;20057;-70
2022/09/30 07:56:42;;;;;;;9.07;3.40;;;25.90;99.90;;;;;;5018865;28;20491;-70
2022/09/30 07:59:32;;;;;;;5.05;2.80;;;26.00;99.90;;;;;;5038528;28;20082;-72
2022/09/30 08:02:00;;;;;;;8.60;3.28;;;26.30;99.90;;;;;;5072344;28;20055;-70
2022/09/30 08:04:29;;;;;;;5.80;2.25;;;26.40;99.90;;;;;;5054993;28;20032;-70
2022/09/30 08:06:59;;;;;;;6.35;2.83;;;26.50;99.90;;;;;;5072283;28;20070;-69
2022/09/30 08:09:28;;;;;;;5.78;2.70;;;26.60;99.90;;;;;;5072478;28;20510;-70
2022/09/30 08:11:56;;;;;;;8.10;2.58;;;26.70;99.90;;;;;;5038341;28;20048;-72
2022/09/30 08:14:26;;;;;;;8.15;2.63;;;26.60;99.90;;;;;;5055273;28;20045;-69
2022/09/30 08:16:55;;;;;;;6.72;2.95;;;26.60;99.90;;;;;;5038421;28;20491;-70
2022/09/30 08:19:24;;;;;;;4.93;2.28;;;26.60;99.90;;;;;;5054117;28;20496;-69
2022/09/30 08:21:53;;;;;;;7.45;2.30;;;26.40;99.90;;;;;;5038078;28;20044;-70
2022/09/30 08:24:22;;;;;;;9.35;2.63;;;26.60;99.90;;;;;;5054061;28;20047;-71
2022/09/30 08:26:51;;;;;;;8.02;2.15;;;26.60;99.90;;;;;;5036902;28;20062;-70
2022/09/30 08:29:18;;;;;;;4.78;2.33;;;26.40;99.90;;;;;;5037922;28;20513;-69
2022/09/30 08:31:51;;;;;;;5.93;2.30;;;26.40;99.90;;;;;;5037780;28;20079;-70
2022/09/30 08:34:20;;;;;;;8.40;3.65;;;26.30;99.90;;;;;;5037323;28;20076;-69
2022/09/30 08:36:47;;;;;;;6.53;2.47;;;26.40;99.90;;;;;;5037527;28;20400;-69
2022/09/30 08:39:15;;;;;;;4.68;3.00;;;26.60;99.90;;;;;;5053602;28;20398;-71
2022/09/30 08:42:07;;;;;;;6.68;2.53;;;26.80;99.90;;;;;;5054339;28;20138;-72
2022/09/30 08:44:47;;;;;;;6.85;2.20;;;26.90;99.90;;;;;;5037271;28;20379;-70
2022/09/30 08:47:29;;;;;;;5.20;2.20;;;27.10;99.90;;;;;;5053286;28;20051;-69
2022/09/30 08:50:21;;;;;;;5.47;1.67;;;27.10;99.90;;;;;;5072338;28;20054;-69
2022/09/30 08:52:55;;;;;;;6.15;1.65;;;27.20;99.90;;;;;;5052581;28;20049;-70
2022/09/30 08:55:44;;;;;;;4.90;2.65;;;27.30;99.90;;;;;;5053874;28;20095;-71
2022/09/30 08:58:26;;;;;;;4.20;2.20;;;27.30;99.90;;;;;;5036974;28;20051;-72
2022/09/30 09:01:13;;;;;;;9.98;2.80;;;27.30;99.90;;;;;;5037022;28;20107;-70
2022/09/30 09:03:42;;;;;;;7.15;2.25;;;27.60;99.90;;;;;;5020452;28;20406;-69
2022/09/30 09:06:28;;;;;;;7.47;1.92;;;27.50;99.90;;;;;;5036125;28;20045;-71
2022/09/30 09:09:19;;;;;;;4.43;2.38;;;27.20;99.90;;;;;;5019734;28;20052;-74
2022/09/30 09:11:59;;;;;;;7.82;2.45;;;27.20;99.90;;;;;;5052856;28;20083;-71
2022/09/30 09:14:51;;;;;;;3.90;1.75;;;27.20;99.90;;;;;;5052656;28;20060;-69
2022/09/30 09:17:25;;;;;;;4.15;2.17;;;27.30;99.90;;;;;;5053325;28;20123;-70
2022/09/30 09:20:16;;;;;;;3.92;2.20;;;27.40;99.90;;;;;;5053417;28;20508;-70
2022/09/30 09:22:45;;;;;;;4.90;1.88;;;27.50;99.90;;;;;;5036115;28;20060;-69
2022/09/30 09:25:18;;;;;;;2.92;1.65;;;27.60;99.90;;;;;;5035994;28;20113;-70
2022/09/30 09:27:52;;;;;;;3.42;1.70;;;27.50;99.90;;;;;;5052478;28;20068;-74
2022/09/30 09:30:24;;;;;;;2.45;1.70;;;27.50;99.90;;;;;;5034662;28;20131;-73
2022/09/30 09:32:55;;;;;;;4.50;1.83;;;27.40;99.90;;;;;;5035173;28;20135;-69
2022/09/30 09:35:32;;;;;;;2.97;1.20;;;27.30;99.90;;;;;;5036082;28;20048;-70
2022/09/30 09:38:38;;;;;;;5.00;1.45;;;27.40;99.90;;;;;;5019550;28;20109;-70
2022/09/30 09:41:21;;;;;;;3.88;2.13;;;27.50;99.90;;;;;;5019448;28;20181;-71
2022/09/30 09:43:59;;;;;;;3.45;1.52;;;27.60;99.90;;;;;;5052782;28;20131;-70
2022/09/30 09:46:37;;;;;;;5.22;2.28;;;27.50;99.90;;;;;;5052256;28;20055;-69
2022/09/30 09:49:19;;;;;;;4.28;2.00;;;27.50;99.90;;;;;;5070550;28;20811;-70
2022/09/30 09:51:57;;;;;;;3.75;2.10;;;27.30;99.90;;;;;;5035228;28;20602;-71
2022/09/30 09:54:30;;;;;;;4.03;1.40;;;27.50;99.90;;;;;;5035717;28;20386;-71
2022/09/30 09:57:13;;;;;;;6.18;1.95;;;27.70;99.90;;;;;;5050737;28;20049;-70
2022/09/30 09:59:58;;;;;;;2.72;1.35;;;27.60;99.80;;;;;;5069986;28;20817;-70
2022/09/30 10:02:32;;;;;;;3.25;1.27;;;27.70;99.10;;;;;;5053462;28;20053;-73
2022/09/30 10:05:02;;;;;;;3.70;1.73;;;27.70;98.80;;;;;;5035238;28;20071;-70
2022/09/30 10:07:32;;;;;;;4.00;1.95;;;27.60;98.70;;;;;;5052056;28;20037;-70
2022/09/30 10:10:14;;;;;;;5.68;3.15;;;27.60;99.70;;;;;;5070021;28;20044;-70
2022/09/30 10:12:46;;;;;;;6.38;1.65;;;27.70;98.80;;;;;;5036158;28;20443;-71
2022/09/30 10:15:23;;;;;;;2.33;1.25;;;27.60;97.60;;;;;;5051857;28;20122;-70
2022/09/30 10:17:55;;;;;;;6.22;1.50;;;27.70;97.80;;;;;;5069936;28;20052;-70
2022/09/30 10:20:28;;;;;;;2.85;1.40;;;27.70;97.40;;;;;;5035656;28;20067;-73
2022/09/30 10:23:28;;;;;;;4.57;1.60;;;27.70;97.80;;;;;;5051914;28;20040;-71
2022/09/30 10:26:03;;;;;;;3.33;1.38;;;27.70;98.20;;;;;;5047481;28;20052;-71
2022/09/30 10:28:43;;;;;;;3.30;1.67;;;27.90;98.60;;;;;;5035636;28;20052;-71
2022/09/30 10:31:21;;;;;;;6.60;2.13;;;27.90;97.90;;;;;;5019187;28;20147;-70
2022/09/30 10:34:17;;;;;;;7.38;2.08;;;27.70;97.90;;;;;;5036057;28;20043;-73
2022/09/30 10:36:45;;;;;;;3.40;1.25;;;27.40;97.50;;;;;;5019359;28;20503;-70
2022/09/30 10:39:25;;;;;;;9.00;3.40;;;27.60;98.50;;;;;;5035121;28;20044;-70
2022/09/30 10:42:06;;;;;;;2.35;1.63;;;27.70;97.20;;;;;;5036646;28;20048;-70
2022/09/30 10:44:47;;;;;;;4.80;1.38;;;27.70;97.60;;;;;;5055846;28;20462;-72
2022/09/30 10:47:21;;;;;;;4.85;1.50;;;27.70;97.20;;;;;;5038109;28;20479;-70
2022/09/30 10:50:00;;;;;;;6.18;1.40;;;27.60;97.40;;;;;;5057059;28;20166;-70
2022/09/30 10:52:31;;;;;;;3.05;1.23;;;27.70;97.30;;;;;;5056798;28;20097;-70
2022/09/30 10:55:05;;;;;;;4.70;1.73;;;27.80;97.70;;;;;;5040138;28;20049;-73
2022/09/30 10:57:36;;;;;;;2.80;1.35;;;27.90;97.80;;;;;;5040061;28;20052;-71
2022/09/30 11:00:13;;;;;;;5.53;1.30;;;27.70;97.90;;;;;;5055858;28;20128;-70
2022/09/30 11:02:54;;;;;;;4.70;1.45;;;27.60;98.20;;;;;;5038568;28;20076;-70
2022/09/30 11:05:27;;;;;;;3.67;1.50;;;27.60;98.00;;;;;;5038311;28;20048;-70
2022/09/30 11:08:21;;;;;;;4.15;2.08;;;27.50;98.20;;;;;;5021652;28;20465;-70
2022/09/30 11:11:10;;;;;;;5.65;1.40;;;27.60;98.20;;;;;;5054050;28;20057;-70
2022/09/30 11:14:09;;;;;;;3.47;1.45;;;27.60;98.50;;;;;;5039223;28;20056;-71
2022/09/30 11:16:55;;;;;;;4.05;1.30;;;27.30;99.10;;;;;;5038547;28;20057;-69
2022/09/30 11:19:29;;;;;;;;;;;27.10;99.80;;;;;;5022082;28;20510;-79
2022/09/30 11:21:56;;;;;;;3.25;1.83;;;27.10;99.50;;;;;;5038050;28;20032;-71
2022/09/30 11:24:36;;;;;;;6.40;1.42;;;26.90;99.90;;;;;;5021767;28;20045;-70
2022/09/30 11:27:41;;;;;;;3.83;1.95;;;26.60;99.90;;;;;;5071708;28;20048;-70
2022/09/30 11:30:18;;;;;;;3.78;1.33;;;26.60;99.90;;;;;;5054133;28;20056;-70
2022/09/30 11:32:55;;;;;;;4.75;1.60;;;26.70;99.90;;;;;;5071093;28;20494;-76
2022/09/30 11:35:42;;;;;;;4.20;1.92;;;26.70;99.90;;;;;;5053242;28;20415;-73
2022/09/30 11:38:31;;;;;;;2.45;1.23;;;26.70;99.90;;;;;;5051691;28;20067;-71
2022/09/30 11:41:21;;;;;;;4.35;1.52;;;26.80;99.90;;;;;;5052105;28;20536;-71
2022/09/30 11:44:16;;;;;;;4.38;2.20;;;26.90;99.90;;;;;;5053225;28;20457;-70
2022/09/30 11:46:53;;;;;;;6.43;3.03;;;26.90;99.90;;;;;;5036756;28;20048;-73
2022/09/30 11:49:27;;;;;;;9.90;2.20;;;26.90;99.90;;;;;;5053355;28;20057;-69
2022/09/30 11:52:14;;;;;;;2.30;1.35;;;26.70;99.90;;;;;;5021320;28;20056;-71
2022/09/30 11:55:05;;;;;;;5.35;1.42;;;26.40;99.80;;;;;;5052351;28;20102;-72
2022/09/30 11:57:45;;;;;;;2.13;1.30;;;26.30;99.90;;;;;;5052694;28;20055;-70
2022/09/30 12:00:19;;;;;;;2.45;1.40;;;26.30;99.90;;;;;;5018597;28;20075;-73
2022/09/30 12:03:21;;;;;;;2.88;1.45;;;26.60;99.90;;;;;;5030145;28;20049;-71
2022/09/30 12:06:04;;;;;;;2.63;1.27;;;26.70;99.90;;;;;;5018485;28;20124;-71
2022/09/30 12:08:39;;;;;;;3.88;1.70;;;26.60;99.90;;;;;;5028862;28;20440;-72
2022/09/30 12:11:19;;;;;;;4.18;1.52;;;26.60;99.90;;;;;;5035944;28;20063;-71
2022/09/30 12:13:56;;;;;;;6.38;2.38;;;26.80;99.90;;;;;;5036107;28;20641;-71
2022/09/30 12:16:28;;;;;;;2.65;1.35;;;26.90;99.80;;;;;;5034860;28;20084;-71
2022/09/30 12:19:17;;;;;;;11.57;3.67;;;26.90;99.80;;;;;;5053491;28;20053;-71
2022/09/30 12:22:05;;;;;;;4.20;2.25;;;26.80;99.90;;;;;;5035979;28;20049;-71
2022/09/30 12:24:43;;;;;;;5.63;2.80;;;26.90;99.90;;;;;;5052985;28;20048;-71
2022/09/30 12:27:15;;;;;;;2.90;1.80;;;26.70;99.60;;;;;;5034482;28;20502;-72
2022/09/30 12:30:16;;;;;;;6.38;3.72;;;26.60;99.80;;;;;;5053247;28;20044;-73
2022/09/30 12:33:04;;;;;;;5.50;2.78;;;26.40;99.80;;;;;;5036736;28;20055;-84
2022/09/30 12:36:02;;;;;;;8.10;1.92;;;26.50;99.80;;;;;;5016348;28;20056;-74
2022/09/30 12:38:59;;;;;;;2.75;1.52;;;26.60;99.40;;;;;;5066482;28;20123;-73
2022/09/30 12:41:54;;;;;;;5.63;1.80;;;26.70;99.30;;;;;;5048495;28;20557;-71
2022/09/30 12:44:31;;;;;;;4.80;1.63;;;26.60;98.20;;;;;;5027754;28;20431;-70
2022/09/30 12:47:08;;;;;;;8.30;1.63;;;26.40;98.70;;;;;;5043884;28;20068;-68
2022/09/30 12:49:39;;;;;;;4.95;1.50;;;26.40;99.10;;;;;;5041183;28;20037;-69
2022/09/30 12:52:16;;;;;;;2.90;1.83;;;26.30;99.30;;;;;;5032919;28;20056;-71
2022/09/30 12:54:50;;;;;;;8.43;3.33;;;26.30;99.20;;;;;;5041783;28;20051;-71
2022/09/30 12:57:31;;;;;;;3.28;1.80;;;26.30;99.90;;;;;;5017729;28;20056;-68
2022/09/30 13:00:13;;;;;;;3.67;1.70;;;26.40;99.70;;;;;;5070889;28;20398;-68
2022/09/30 13:02:46;;;;;;;8.48;2.75;;;26.40;99.20;;;;;;5036747;28;20040;-69
2022/09/30 13:05:26;;;;;;;3.90;2.08;;;26.50;99.10;;;;;;5051125;28;20123;-69
2022/09/30 13:08:03;;;;;;;2.78;1.48;;;26.60;99.60;;;;;;5052744;28;20037;-68
2022/09/30 13:10:34;;;;;;;3.17;1.42;;;26.50;99.40;;;;;;5034928;28;20410;-68
2022/09/30 13:13:15;;;;;;;3.78;1.92;;;26.50;99.50;;;;;;5049212;28;20037;-68
2022/09/30 13:15:46;;;;;;;4.03;1.63;;;26.50;99.30;;;;;;5029063;28;20140;-68
2022/09/30 13:18:25;;;;;;;4.05;1.70;;;26.40;99.30;;;;;;5022422;28;20086;-68
2022/09/30 13:21:07;;;;;;;4.65;2.17;;;26.40;99.60;;;;;;5066724;28;20499;-71
2022/09/30 13:23:41;;;;;;;2.97;1.90;;;26.40;99.50;;;;;;5004113;28;20071;-68
2022/09/30 13:26:27;;;;;;;4.00;2.20;;;26.30;99.00;;;;;;5012262;28;20231;-70
2022/09/30 13:29:01;;;;;;;6.60;3.22;;;26.30;98.70;;;;;;5051070;28;20144;-69
2022/09/30 13:31:50;;;;;;;4.22;2.33;;;26.20;98.70;;;;;;5026798;28;20051;-68